createdAt,value
2018-05-21T00:00:32.077Z,0.00
2018-05-21T00:01:31.975Z,0.00
2018-05-21T00:02:31.884Z,0.00
2018-05-21T00:03:31.781Z,0.00
2018-05-21T00:04:31.689Z,0.00
2018-05-21T00:05:31.585Z,0.00
2018-05-21T00:06:31.496Z,0.00
2018-05-21T00:07:31.392Z,0.00
2018-05-21T00:08:31.288Z,0.00
2018-05-21T00:09:31.197Z,0.00
2018-05-21T00:10:31.094Z,0.00
2018-05-21T00:11:31.004Z,0.00
2018-05-21T00:12:30.901Z,0.00
2018-05-21T00:13:30.798Z,0.00
2018-05-21T00:14:30.706Z,0.00
2018-05-21T00:15:30.602Z,0.00
2018-05-21T00:16:30.512Z,0.00
2018-05-21T00:17:30.410Z,0.00
2018-05-21T00:18:30.306Z,0.00
2018-05-21T00:19:30.214Z,0.00
2018-05-21T00:20:30.111Z,0.00
2018-05-21T00:21:30.022Z,0.00
2018-05-21T00:22:29.918Z,0.00
2018-05-21T00:23:29.814Z,0.00
2018-05-21T00:24:29.726Z,0.00
2018-05-21T00:25:29.620Z,0.00
2018-05-21T00:26:29.531Z,0.00
2018-05-21T00:27:29.427Z,0.00
2018-05-21T00:28:29.323Z,0.00
2018-05-21T00:29:29.244Z,0.00
2018-05-21T00:30:29.128Z,0.00
2018-05-21T00:31:29.043Z,0.00
2018-05-21T00:32:28.935Z,0.00
2018-05-21T00:33:28.832Z,0.00
2018-05-21T00:34:28.740Z,0.00
2018-05-21T00:35:28.640Z,0.00
2018-05-21T00:36:28.535Z,0.00
2018-05-21T00:37:28.443Z,0.00
2018-05-21T00:38:28.340Z,0.00
2018-05-21T00:39:28.251Z,0.00
2018-05-21T00:40:28.144Z,0.00
2018-05-21T00:41:28.043Z,0.00
2018-05-21T00:42:27.952Z,0.00
2018-05-21T00:43:27.849Z,0.00
2018-05-21T00:44:27.757Z,0.00
2018-05-21T00:45:27.653Z,0.00
2018-05-21T00:46:27.550Z,0.00
2018-05-21T00:47:27.460Z,0.00
2018-05-21T00:48:27.357Z,0.00
2018-05-21T00:49:27.265Z,0.00
2018-05-21T00:50:27.162Z,0.00
2018-05-21T00:51:27.058Z,0.00
2018-05-21T00:52:26.973Z,0.00
2018-05-21T00:53:26.865Z,0.00
2018-05-21T00:54:26.761Z,0.00
2018-05-21T00:55:26.670Z,0.00
2018-05-21T00:56:26.567Z,0.00
2018-05-21T00:57:26.776Z,0.00
2018-05-21T00:58:26.374Z,0.00
2018-05-21T00:59:26.271Z,0.00
2018-05-21T01:00:26.178Z,0.00
2018-05-21T01:01:26.075Z,0.00
2018-05-21T01:02:25.972Z,0.00
2018-05-21T01:03:25.881Z,0.00
2018-05-21T01:04:25.779Z,0.00
2018-05-21T01:05:25.687Z,0.00
2018-05-21T01:06:25.584Z,0.00
2018-05-21T01:07:25.789Z,0.00
2018-05-21T01:08:25.390Z,0.00
2018-05-21T01:09:25.294Z,0.00
2018-05-21T01:10:25.184Z,0.00
2018-05-21T01:11:25.095Z,0.00
2018-05-21T01:12:24.989Z,0.00
2018-05-21T01:13:24.886Z,0.00
2018-05-21T01:14:24.796Z,0.00
2018-05-21T01:15:24.693Z,0.00
2018-05-21T01:16:24.590Z,0.00
2018-05-21T01:17:24.497Z,0.00
2018-05-21T01:18:24.394Z,0.00
2018-05-21T01:19:24.303Z,0.00
2018-05-21T01:20:24.200Z,0.00
2018-05-21T01:21:24.097Z,0.00
2018-05-21T01:22:24.005Z,0.00
2018-05-21T01:23:23.901Z,0.00
2018-05-21T01:24:23.798Z,0.00
2018-05-21T01:25:23.712Z,0.00
2018-05-21T01:26:23.605Z,0.00
2018-05-21T01:27:23.502Z,0.00
2018-05-21T01:28:23.411Z,0.00
2018-05-21T01:29:23.320Z,0.00
2018-05-21T01:30:23.206Z,0.00
2018-05-21T01:31:23.114Z,0.00
2018-05-21T01:32:23.010Z,0.00
2018-05-21T01:33:22.919Z,0.00
2018-05-21T01:34:22.815Z,0.00
2018-05-21T01:35:22.712Z,0.00
2018-05-21T01:36:22.622Z,0.00
2018-05-21T01:37:22.518Z,0.00
2018-05-21T01:38:22.415Z,0.00
2018-05-21T01:39:22.324Z,0.00
2018-05-21T01:40:22.302Z,0.00
2018-05-21T01:41:22.117Z,0.00
2018-05-21T01:42:22.027Z,0.00
2018-05-21T01:43:21.924Z,0.00
2018-05-21T01:44:21.820Z,0.00
2018-05-21T01:45:21.729Z,0.00
2018-05-21T01:46:21.626Z,0.00
2018-05-21T01:47:21.523Z,0.00
2018-05-21T01:48:21.433Z,0.00
2018-05-21T01:49:21.328Z,0.00
2018-05-21T01:50:21.226Z,0.00
2018-05-21T01:51:21.137Z,0.00
2018-05-21T01:52:21.031Z,0.00
2018-05-21T01:53:20.929Z,0.00
2018-05-21T01:54:20.837Z,0.00
2018-05-21T01:55:20.741Z,0.00
2018-05-21T01:56:20.630Z,0.00
2018-05-21T01:57:20.543Z,0.00
2018-05-21T01:58:20.436Z,0.00
2018-05-21T01:59:20.334Z,0.00
2018-05-21T02:00:20.243Z,0.00
2018-05-21T02:01:20.140Z,0.00
2018-05-21T02:02:20.037Z,0.00
2018-05-21T02:03:19.944Z,0.00
2018-05-21T02:04:19.843Z,0.00
2018-05-21T02:05:19.739Z,0.00
2018-05-21T02:06:19.648Z,0.00
2018-05-21T02:07:19.545Z,0.00
2018-05-21T02:08:19.451Z,0.00
2018-05-21T02:09:19.350Z,0.00
2018-05-21T02:10:19.246Z,0.00
2018-05-21T02:11:19.144Z,0.00
2018-05-21T02:12:19.053Z,0.00
2018-05-21T02:13:18.951Z,0.00
2018-05-21T02:14:18.847Z,0.00
2018-05-21T02:15:18.756Z,0.00
2018-05-21T02:16:18.651Z,0.00
2018-05-21T02:17:18.562Z,0.00
2018-05-21T02:18:18.458Z,0.00
2018-05-21T02:19:18.355Z,0.00
2018-05-21T02:20:18.252Z,0.00
2018-05-21T02:21:18.159Z,0.00
2018-05-21T02:22:18.057Z,0.00
2018-05-21T02:23:17.953Z,0.00
2018-05-21T02:24:17.863Z,4.00
2018-05-21T02:25:17.760Z,4.00
2018-05-21T02:26:17.657Z,4.00
2018-05-21T02:27:17.815Z,4.00
2018-05-21T02:28:17.462Z,4.00
2018-05-21T02:29:17.359Z,4.00
2018-05-21T02:30:17.269Z,4.00
2018-05-21T02:31:17.165Z,8.00
2018-05-21T02:32:17.062Z,4.00
2018-05-21T02:33:16.970Z,8.00
2018-05-21T02:34:16.869Z,8.00
2018-05-21T02:35:16.764Z,8.00
2018-05-21T02:36:16.675Z,12.00
2018-05-21T02:37:16.570Z,12.00
2018-05-21T02:38:16.467Z,12.00
2018-05-21T02:39:16.375Z,16.00
2018-05-21T02:40:16.272Z,16.00
2018-05-21T02:41:16.173Z,20.00
2018-05-21T02:42:16.067Z,24.00
2018-05-21T02:43:15.976Z,28.00
2018-05-21T02:44:15.873Z,32.00
2018-05-21T02:45:15.771Z,32.00
2018-05-21T02:46:15.690Z,36.00
2018-05-21T02:47:15.576Z,44.00
2018-05-21T02:48:15.471Z,48.00
2018-05-21T02:49:15.380Z,52.00
2018-05-21T02:50:15.279Z,56.00
2018-05-21T02:51:15.179Z,64.00
2018-05-21T02:52:15.082Z,68.00
2018-05-21T02:53:14.981Z,76.00
2018-05-21T02:54:14.877Z,80.00
2018-05-21T02:55:14.785Z,92.00
2018-05-21T02:56:14.682Z,100.00
2018-05-21T02:57:14.579Z,108.00
2018-05-21T02:58:14.487Z,116.00
2018-05-21T02:59:14.383Z,128.00
2018-05-21T03:00:14.280Z,140.00
2018-05-21T03:01:14.190Z,148.00
2018-05-21T03:02:14.170Z,164.00
2018-05-21T03:03:13.985Z,172.00
2018-05-21T03:04:13.881Z,188.00
2018-05-21T03:05:13.789Z,200.00
2018-05-21T03:06:13.686Z,216.00
2018-05-21T03:07:13.583Z,232.00
2018-05-21T03:08:13.492Z,252.00
2018-05-21T03:09:13.389Z,268.00
2018-05-21T03:10:13.286Z,284.00
2018-05-21T03:11:13.194Z,304.00
2018-05-21T03:12:13.091Z,324.00
2018-05-21T03:13:12.987Z,344.00
2018-05-21T03:14:12.897Z,368.00
2018-05-21T03:15:12.794Z,384.00
2018-05-21T03:16:12.691Z,408.00
2018-05-21T03:17:12.849Z,432.00
2018-05-21T03:18:12.496Z,456.00
2018-05-21T03:19:12.392Z,480.00
2018-05-21T03:20:12.289Z,504.00
2018-05-21T03:21:12.198Z,532.00
2018-05-21T03:22:12.095Z,560.00
2018-05-21T03:23:11.992Z,592.00
2018-05-21T03:24:11.904Z,620.00
2018-05-21T03:25:11.797Z,652.00
2018-05-21T03:26:11.693Z,680.00
2018-05-21T03:27:11.610Z,708.00
2018-05-21T03:28:11.500Z,736.00
2018-05-21T03:29:11.398Z,764.00
2018-05-21T03:30:11.306Z,796.00
2018-05-21T03:31:11.204Z,832.00
2018-05-21T03:32:11.100Z,860.00
2018-05-21T03:33:10.998Z,896.00
2018-05-21T03:34:10.906Z,932.00
2018-05-21T03:35:10.810Z,976.00
2018-05-21T03:36:10.699Z,1012.00
2018-05-21T03:37:10.609Z,1052.00
2018-05-21T03:38:10.509Z,1088.00
2018-05-21T03:39:10.402Z,1124.00
2018-05-21T03:40:10.312Z,1156.00
2018-05-21T03:41:10.208Z,1184.00
2018-05-21T03:42:10.105Z,1220.00
2018-05-21T03:43:10.044Z,1252.00
2018-05-21T03:44:09.909Z,1284.00
2018-05-21T03:45:09.806Z,1344.00
2018-05-21T03:46:09.717Z,1400.00
2018-05-21T03:47:09.614Z,1452.00
2018-05-21T03:48:09.511Z,1504.00
2018-05-21T03:49:09.417Z,1536.00
2018-05-21T03:50:09.314Z,1568.00
2018-05-21T03:51:09.211Z,1596.00
2018-05-21T03:52:09.121Z,1624.00
2018-05-21T03:53:09.018Z,1652.00
2018-05-21T03:54:08.914Z,1672.00
2018-05-21T03:55:08.824Z,1688.00
2018-05-21T03:56:08.720Z,1712.00
2018-05-21T03:57:08.918Z,1724.00
2018-05-21T03:58:08.526Z,1740.00
2018-05-21T03:59:08.423Z,1756.00
2018-05-21T04:00:08.319Z,1800.00
2018-05-21T04:01:08.229Z,1856.00
2018-05-21T04:02:08.125Z,1904.00
2018-05-21T04:03:08.035Z,1964.00
2018-05-21T04:04:07.934Z,2020.00
2018-05-21T04:05:07.828Z,2084.00
2018-05-21T04:06:07.737Z,2136.00
2018-05-21T04:07:07.633Z,2164.00
2018-05-21T04:08:07.531Z,2188.00
2018-05-21T04:09:07.440Z,2212.00
2018-05-21T04:10:07.337Z,2268.00
2018-05-21T04:11:07.233Z,2324.00
2018-05-21T04:12:07.146Z,2396.00
2018-05-21T04:13:07.039Z,2452.00
2018-05-21T04:14:06.952Z,2496.00
2018-05-21T04:15:06.845Z,2452.00
2018-05-21T04:16:06.742Z,2436.00
2018-05-21T04:17:06.663Z,2420.00
2018-05-21T04:18:06.547Z,2440.00
2018-05-21T04:19:06.445Z,2520.00
2018-05-21T04:20:06.355Z,2592.00
2018-05-21T04:21:06.251Z,2652.00
2018-05-21T04:22:06.163Z,2712.00
2018-05-21T04:23:06.057Z,2944.00
2018-05-21T04:24:05.953Z,3132.00
2018-05-21T04:25:05.866Z,3304.00
2018-05-21T04:26:05.759Z,3620.00
2018-05-21T04:27:05.667Z,3948.00
2018-05-21T04:28:05.564Z,4104.00
2018-05-21T04:29:05.461Z,4416.00
2018-05-21T04:30:05.377Z,4580.00
2018-05-21T04:31:05.267Z,4648.00
2018-05-21T04:32:05.175Z,4716.00
2018-05-21T04:33:05.074Z,4772.00
2018-05-21T04:34:04.983Z,4832.00
2018-05-21T04:35:04.879Z,4884.00
2018-05-21T04:36:04.787Z,4940.00
2018-05-21T04:37:04.984Z,4984.00
2018-05-21T04:38:04.601Z,5040.00
2018-05-21T04:39:04.493Z,5080.00
2018-05-21T04:40:04.399Z,5132.00
2018-05-21T04:41:04.327Z,5192.00
2018-05-21T04:42:04.207Z,5244.00
2018-05-21T04:43:04.103Z,5288.00
2018-05-21T04:44:04.011Z,5344.00
2018-05-21T04:45:03.922Z,5396.00
2018-05-21T04:46:03.846Z,5440.00
2018-05-21T04:47:03.726Z,5492.00
2018-05-21T04:48:03.624Z,5548.00
2018-05-21T04:49:03.533Z,5600.00
2018-05-21T04:50:03.441Z,5656.00
2018-05-21T04:51:03.340Z,5696.00
2018-05-21T04:52:03.247Z,5740.00
2018-05-21T04:53:03.156Z,5792.00
2018-05-21T04:54:03.052Z,5852.00
2018-05-21T04:55:02.963Z,5880.00
2018-05-21T04:56:02.875Z,5932.00
2018-05-21T04:57:02.769Z,5996.00
2018-05-21T04:58:02.678Z,6048.00
2018-05-21T04:59:02.586Z,6100.00
2018-05-21T05:00:02.489Z,6140.00
2018-05-21T05:01:02.395Z,6212.00
2018-05-21T05:02:02.302Z,6280.00
2018-05-21T05:03:02.211Z,6320.00
2018-05-21T05:04:02.110Z,6348.00
2018-05-21T05:05:02.016Z,6352.00
2018-05-21T05:06:01.929Z,6384.00
2018-05-21T05:07:02.084Z,6416.00
2018-05-21T05:08:01.733Z,6476.00
2018-05-21T05:09:01.642Z,6508.00
2018-05-21T05:10:01.554Z,6556.00
2018-05-21T05:11:01.461Z,6584.00
2018-05-21T05:12:01.368Z,6632.00
2018-05-21T05:13:01.267Z,6660.00
2018-05-21T05:14:01.178Z,6712.00
2018-05-21T05:15:01.083Z,6772.00
2018-05-21T05:16:00.994Z,6832.00
2018-05-21T05:17:00.902Z,6896.00
2018-05-21T05:18:00.813Z,6968.00
2018-05-21T05:19:00.720Z,7036.00
2018-05-21T05:20:00.617Z,7060.00
2018-05-21T05:21:00.615Z,7092.00
2018-05-21T05:22:00.435Z,7144.00
2018-05-21T05:23:00.345Z,7236.00
2018-05-21T05:24:00.254Z,7300.00
2018-05-21T05:25:00.164Z,7344.00
2018-05-21T05:26:00.071Z,7396.00
2018-05-21T05:26:59.983Z,7424.00
2018-05-21T05:27:59.878Z,7452.00
2018-05-21T05:28:59.787Z,7504.00
2018-05-21T05:29:59.696Z,7540.00
2018-05-21T05:30:59.605Z,7592.00
2018-05-21T05:31:59.815Z,7648.00
2018-05-21T05:32:59.423Z,7696.00
2018-05-21T05:33:59.333Z,7740.00
2018-05-21T05:34:59.242Z,7784.00
2018-05-21T05:35:59.224Z,7856.00
2018-05-21T05:36:59.049Z,7912.00
2018-05-21T05:37:58.956Z,7940.00
2018-05-21T05:38:58.867Z,7932.00
2018-05-21T05:39:58.775Z,7940.00
2018-05-21T05:40:58.685Z,8024.00
2018-05-21T05:41:58.897Z,8180.00
2018-05-21T05:42:58.505Z,8320.00
2018-05-21T05:43:58.411Z,8368.00
2018-05-21T05:44:58.322Z,8408.00
2018-05-21T05:45:58.230Z,8540.00
2018-05-21T05:46:58.141Z,8788.00
2018-05-21T05:47:58.072Z,9124.00
2018-05-21T05:48:57.965Z,9332.00
2018-05-21T05:49:57.867Z,9332.00
2018-05-21T05:50:57.777Z,9016.00
2018-05-21T05:51:57.685Z,8740.00
2018-05-21T05:52:57.595Z,8556.00
2018-05-21T05:53:57.504Z,8464.00
2018-05-21T05:54:57.414Z,8440.00
2018-05-21T05:55:57.322Z,8496.00
2018-05-21T05:56:57.232Z,8560.00
2018-05-21T05:57:57.140Z,8592.00
2018-05-21T05:58:57.054Z,8640.00
2018-05-21T05:59:56.959Z,8700.00
2018-05-21T06:00:56.868Z,8764.00
2018-05-21T06:01:56.777Z,8856.00
2018-05-21T06:02:56.687Z,8908.00
2018-05-21T06:03:56.596Z,8984.00
2018-05-21T06:04:56.506Z,9076.00
2018-05-21T06:05:56.414Z,9180.00
2018-05-21T06:06:56.325Z,9312.00
2018-05-21T06:07:56.232Z,9416.00
2018-05-21T06:08:56.142Z,9464.00
2018-05-21T06:09:56.068Z,9516.00
2018-05-21T06:10:55.961Z,9576.00
2018-05-21T06:11:55.869Z,9688.00
2018-05-21T06:12:55.778Z,9824.00
2018-05-21T06:13:55.690Z,10012.00
2018-05-21T06:14:55.610Z,10300.00
2018-05-21T06:15:55.519Z,10412.00
2018-05-21T06:16:55.427Z,10256.00
2018-05-21T06:17:55.337Z,10276.00
2018-05-21T06:18:55.246Z,10676.00
2018-05-21T06:19:55.156Z,11048.00
2018-05-21T06:20:55.065Z,10924.00
2018-05-21T06:21:55.224Z,10684.00
2018-05-21T06:22:54.884Z,10624.00
2018-05-21T06:23:54.804Z,10652.00
2018-05-21T06:24:54.715Z,10772.00
2018-05-21T06:25:54.633Z,10848.00
2018-05-21T06:26:54.533Z,10920.00
2018-05-21T06:27:54.441Z,11028.00
2018-05-21T06:28:54.351Z,11132.00
2018-05-21T06:29:54.260Z,11228.00
2018-05-21T06:30:54.180Z,11412.00
2018-05-21T06:31:54.091Z,11592.00
2018-05-21T06:32:54.000Z,11704.00
2018-05-21T06:33:53.919Z,11792.00
2018-05-21T06:34:53.817Z,11860.00
2018-05-21T06:35:53.729Z,11996.00
2018-05-21T06:36:53.649Z,12160.00
2018-05-21T06:37:53.549Z,12312.00
2018-05-21T06:38:53.468Z,12404.00
2018-05-21T06:39:53.379Z,12440.00
2018-05-21T06:40:53.286Z,12480.00
2018-05-21T06:41:53.198Z,12624.00
2018-05-21T06:42:53.117Z,12800.00
2018-05-21T06:43:53.026Z,12928.00
2018-05-21T06:44:52.936Z,13044.00
2018-05-21T06:45:52.845Z,13168.00
2018-05-21T06:46:52.753Z,13276.00
2018-05-21T06:47:52.711Z,13436.00
2018-05-21T06:48:52.585Z,13584.00
2018-05-21T06:49:52.493Z,13784.00
2018-05-21T06:50:52.405Z,13892.00
2018-05-21T06:51:52.313Z,14068.00
2018-05-21T06:52:52.222Z,14264.00
2018-05-21T06:53:52.143Z,14560.00
2018-05-21T06:54:52.052Z,14856.00
2018-05-21T06:55:51.962Z,15056.00
2018-05-21T06:56:51.871Z,15232.00
2018-05-21T06:57:51.793Z,15488.00
2018-05-21T06:58:51.702Z,15588.00
2018-05-21T06:59:51.712Z,15628.00
2018-05-21T07:00:51.520Z,15800.00
2018-05-21T07:01:51.441Z,15984.00
2018-05-21T07:02:51.351Z,16232.00
2018-05-21T07:03:51.260Z,16360.00
2018-05-21T07:04:51.169Z,16420.00
2018-05-21T07:05:51.091Z,16596.00
2018-05-21T07:06:50.999Z,16896.00
2018-05-21T07:07:50.925Z,17068.00
2018-05-21T07:08:50.819Z,17312.00
2018-05-21T07:09:50.741Z,17152.00
2018-05-21T07:10:50.657Z,16928.00
2018-05-21T07:11:50.558Z,16864.00
2018-05-21T07:12:50.470Z,16800.00
2018-05-21T07:13:50.388Z,17056.00
2018-05-21T07:14:50.299Z,17376.00
2018-05-21T07:15:50.208Z,17728.00
2018-05-21T07:16:50.116Z,18080.00
2018-05-21T07:17:50.043Z,18400.00
2018-05-21T07:18:49.947Z,18880.00
2018-05-21T07:19:49.856Z,19008.00
2018-05-21T07:20:49.778Z,19136.00
2018-05-21T07:21:49.938Z,19296.00
2018-05-21T07:22:49.597Z,19424.00
2018-05-21T07:23:49.519Z,19712.00
2018-05-21T07:24:49.427Z,19968.00
2018-05-21T07:25:49.337Z,20416.00
2018-05-21T07:26:49.259Z,21120.00
2018-05-21T07:27:49.167Z,21536.00
2018-05-21T07:28:49.077Z,21984.00
2018-05-21T07:29:48.999Z,22432.00
2018-05-21T07:30:48.909Z,23296.00
2018-05-21T07:31:48.829Z,24640.00
2018-05-21T07:32:48.738Z,26560.00
2018-05-21T07:33:48.647Z,28544.00
2018-05-21T07:34:48.569Z,30368.00
2018-05-21T07:35:48.492Z,33312.00
2018-05-21T07:36:48.389Z,40608.00
2018-05-21T07:37:48.314Z,52064.00
2018-05-21T07:38:48.235Z,63328.00
2018-05-21T07:39:48.140Z,71648.00
2018-05-21T07:40:48.049Z,74496.00
2018-05-21T07:41:48.054Z,74624.00
2018-05-21T07:42:47.885Z,72480.00
2018-05-21T07:43:47.789Z,70336.00
2018-05-21T07:44:47.737Z,73152.00
2018-05-21T07:45:47.620Z,80768.00
2018-05-21T07:46:47.542Z,91616.00
2018-05-21T07:47:47.451Z,95744.00
2018-05-21T07:48:47.361Z,96896.00
2018-05-21T07:49:47.282Z,95552.00
2018-05-21T07:50:47.205Z,101120.00
2018-05-21T07:51:47.113Z,114752.00
2018-05-21T07:52:47.023Z,121312.00
2018-05-21T07:53:46.933Z,125536.00
2018-05-21T07:54:46.859Z,134688.00
2018-05-21T07:55:46.763Z,131008.00
2018-05-21T07:56:46.934Z,93696.00
2018-05-21T07:57:46.593Z,37376.00
2018-05-21T07:58:46.514Z,8892.00
2018-05-21T07:59:46.425Z,8188.00
2018-05-21T08:00:46.336Z,7864.00
2018-05-21T08:01:46.249Z,7672.00
2018-05-21T08:02:46.165Z,7588.00
2018-05-21T08:03:46.073Z,7544.00
2018-05-21T08:04:45.998Z,7520.00
2018-05-21T08:05:45.893Z,7484.00
2018-05-21T08:06:45.813Z,7424.00
2018-05-21T08:07:45.723Z,7332.00
2018-05-21T08:08:45.631Z,7228.00
2018-05-21T08:09:45.542Z,7120.00
2018-05-21T08:10:45.450Z,7016.00
2018-05-21T08:11:45.361Z,6928.00
2018-05-21T08:12:45.280Z,6872.00
2018-05-21T08:13:45.190Z,6836.00
2018-05-21T08:14:45.199Z,6852.00
2018-05-21T08:15:45.009Z,6864.00
2018-05-21T08:16:44.918Z,6920.00
2018-05-21T08:17:44.828Z,7016.00
2018-05-21T08:18:44.738Z,7128.00
2018-05-21T08:19:44.646Z,7252.00
2018-05-21T08:20:44.556Z,7380.00
2018-05-21T08:21:44.713Z,7484.00
2018-05-21T08:22:44.373Z,7616.00
2018-05-21T08:23:44.281Z,7748.00
2018-05-21T08:24:44.192Z,7880.00
2018-05-21T08:25:44.106Z,7988.00
2018-05-21T08:26:44.014Z,8048.00
2018-05-21T08:27:43.919Z,8124.00
2018-05-21T08:28:43.828Z,8200.00
2018-05-21T08:29:43.742Z,8252.00
2018-05-21T08:30:43.648Z,8312.00
2018-05-21T08:31:43.543Z,8380.00
2018-05-21T08:32:43.453Z,8452.00
2018-05-21T08:33:43.362Z,8528.00
2018-05-21T08:34:43.272Z,8628.00
2018-05-21T08:35:43.184Z,8752.00
2018-05-21T08:36:43.093Z,8984.00
2018-05-21T08:37:42.999Z,9456.00
2018-05-21T08:38:42.909Z,11844.00
2018-05-21T08:39:42.805Z,20896.00
2018-05-21T08:40:42.713Z,36384.00
2018-05-21T08:41:42.622Z,46944.00
2018-05-21T08:42:42.609Z,51456.00
2018-05-21T08:43:42.440Z,53728.00
2018-05-21T08:44:42.351Z,58176.00
2018-05-21T08:45:42.259Z,57824.00
2018-05-21T08:46:42.169Z,55360.00
2018-05-21T08:47:42.079Z,52864.00
2018-05-21T08:48:42.007Z,51968.00
2018-05-21T08:49:41.896Z,53088.00
2018-05-21T08:50:41.808Z,55264.00
2018-05-21T08:51:41.715Z,55200.00
2018-05-21T08:52:41.624Z,53376.00
2018-05-21T08:53:41.533Z,52224.00
2018-05-21T08:54:41.454Z,53344.00
2018-05-21T08:55:41.365Z,53920.00
2018-05-21T08:56:41.394Z,54208.00
2018-05-21T08:57:41.182Z,54016.00
2018-05-21T08:58:41.094Z,53216.00
2018-05-21T08:59:41.012Z,52832.00
2018-05-21T09:00:40.922Z,54240.00
2018-05-21T09:01:40.830Z,56288.00
2018-05-21T09:02:40.752Z,57216.00
2018-05-21T09:03:40.665Z,55296.00
2018-05-21T09:04:40.584Z,53472.00
2018-05-21T09:05:40.481Z,54112.00
2018-05-21T09:06:40.403Z,57344.00
2018-05-21T09:07:40.313Z,61728.00
2018-05-21T09:08:40.220Z,62528.00
2018-05-21T09:09:40.143Z,61184.00
2018-05-21T09:10:40.050Z,62304.00
2018-05-21T09:11:39.972Z,61888.00
2018-05-21T09:12:39.882Z,59872.00
2018-05-21T09:13:39.790Z,58624.00
2018-05-21T09:14:39.713Z,56352.00
2018-05-21T09:15:39.623Z,52992.00
2018-05-21T09:16:39.641Z,49408.00
2018-05-21T09:17:39.454Z,48000.00
2018-05-21T09:18:39.374Z,46272.00
2018-05-21T09:19:39.290Z,46432.00
2018-05-21T09:20:39.193Z,11548.00
2018-05-21T09:21:39.121Z,46976.00
2018-05-21T09:22:39.117Z,45728.00
2018-05-21T09:23:38.946Z,43904.00
2018-05-21T09:24:38.858Z,42560.00
2018-05-21T09:25:38.765Z,42816.00
2018-05-21T09:26:38.686Z,23264.00
2018-05-21T09:27:38.595Z,8380.00
2018-05-21T09:28:38.518Z,46112.00
2018-05-21T09:29:38.427Z,45536.00
2018-05-21T09:30:38.349Z,42272.00
2018-05-21T09:31:38.256Z,42656.00
2018-05-21T09:32:38.175Z,42272.00
2018-05-21T09:33:38.090Z,42016.00
2018-05-21T09:34:38.005Z,42112.00
2018-05-21T09:35:37.918Z,41760.00
2018-05-21T09:36:37.828Z,41792.00
2018-05-21T09:37:37.750Z,42432.00
2018-05-21T09:38:37.661Z,44128.00
2018-05-21T09:39:37.569Z,42848.00
2018-05-21T09:40:37.490Z,50368.00
2018-05-21T09:41:37.399Z,48768.00
2018-05-21T09:42:37.320Z,48576.00
2018-05-21T09:43:37.231Z,45376.00
2018-05-21T09:44:37.152Z,43104.00
2018-05-21T09:45:37.060Z,42208.00
2018-05-21T09:46:36.981Z,41344.00
2018-05-21T09:47:36.893Z,41056.00
2018-05-21T09:48:36.838Z,41248.00
2018-05-21T09:49:36.723Z,41056.00
2018-05-21T09:50:36.646Z,41760.00
2018-05-21T09:51:36.553Z,40544.00
2018-05-21T09:52:36.475Z,41184.00
2018-05-21T09:53:36.386Z,11100.00
2018-05-21T09:54:36.353Z,16572.00
2018-05-21T09:55:36.227Z,44160.00
2018-05-21T09:56:36.141Z,48672.00
2018-05-21T09:57:36.059Z,45472.00
2018-05-21T09:58:35.967Z,41568.00
2018-05-21T09:59:35.889Z,40544.00
2018-05-21T10:00:35.799Z,39776.00
2018-05-21T10:01:35.721Z,39168.00
2018-05-21T10:02:35.630Z,38624.00
2018-05-21T10:03:35.551Z,39328.00
2018-05-21T10:04:35.465Z,25920.00
2018-05-21T10:05:35.383Z,44608.00
2018-05-21T10:06:35.304Z,41088.00
2018-05-21T10:07:35.212Z,41120.00
2018-05-21T10:08:35.134Z,13888.00
2018-05-21T10:09:35.044Z,13180.00
2018-05-21T10:10:34.967Z,31584.00
2018-05-21T10:11:34.874Z,56736.00
2018-05-21T10:12:34.796Z,73056.00
2018-05-21T10:13:34.705Z,119616.00
2018-05-21T10:14:34.631Z,175872.00
2018-05-21T10:15:34.537Z,191488.00
2018-05-21T10:16:34.457Z,166976.00
2018-05-21T10:17:34.379Z,141664.00
2018-05-21T10:18:34.290Z,137664.00
2018-05-21T10:19:34.215Z,139808.00
2018-05-21T10:20:34.119Z,143968.00
2018-05-21T10:21:34.041Z,144448.00
2018-05-21T10:22:33.963Z,140320.00
2018-05-21T10:23:33.873Z,141376.00
2018-05-21T10:24:33.797Z,148960.00
2018-05-21T10:25:33.716Z,150688.00
2018-05-21T10:26:33.626Z,46112.00
2018-05-21T10:27:33.551Z,146848.00
2018-05-21T10:28:33.467Z,145568.00
2018-05-21T10:29:33.380Z,148896.00
2018-05-21T10:30:33.299Z,152448.00
2018-05-21T10:31:33.222Z,146496.00
2018-05-21T10:32:33.142Z,146720.00
2018-05-21T10:33:33.064Z,16524.00
2018-05-21T10:34:32.973Z,147616.00
2018-05-21T10:35:32.899Z,76608.00
2018-05-21T10:36:32.818Z,126592.00
2018-05-21T10:37:32.738Z,124352.00
2018-05-21T10:38:32.659Z,122720.00
2018-05-21T10:39:32.569Z,124096.00
2018-05-21T10:40:32.492Z,129120.00
2018-05-21T10:41:32.413Z,140704.00
2018-05-21T10:42:32.324Z,106112.00
2018-05-21T10:43:32.257Z,118080.00
2018-05-21T10:44:32.165Z,116576.00
2018-05-21T10:45:32.091Z,93856.00
2018-05-21T10:46:32.000Z,111456.00
2018-05-21T10:47:31.919Z,110880.00
2018-05-21T10:48:31.840Z,112000.00
2018-05-21T10:49:31.761Z,113728.00
2018-05-21T10:50:31.671Z,113440.00
2018-05-21T10:51:31.599Z,113504.00
2018-05-21T10:52:31.522Z,115616.00
2018-05-21T10:53:31.435Z,119360.00
2018-05-21T10:54:31.345Z,119872.00
2018-05-21T10:55:31.267Z,118528.00
2018-05-21T10:56:31.188Z,51072.00
2018-05-21T10:57:31.199Z,117952.00
2018-05-21T10:58:31.033Z,115232.00
2018-05-21T10:59:30.941Z,114176.00
2018-05-21T11:00:30.861Z,114624.00
2018-05-21T11:01:30.783Z,116032.00
2018-05-21T11:02:30.706Z,117376.00
2018-05-21T11:03:30.615Z,114336.00
2018-05-21T11:04:30.583Z,109024.00
2018-05-21T11:05:30.460Z,108352.00
2018-05-21T11:06:30.381Z,107296.00
2018-05-21T11:07:30.292Z,108448.00
2018-05-21T11:08:30.210Z,112128.00
2018-05-21T11:09:30.145Z,104192.00
2018-05-21T11:10:30.053Z,100256.00
2018-05-21T11:11:29.964Z,94848.00
2018-05-21T11:12:29.886Z,114688.00
2018-05-21T11:13:29.807Z,114848.00
2018-05-21T11:14:29.729Z,31808.00
2018-05-21T11:15:29.639Z,101472.00
2018-05-21T11:16:29.559Z,93984.00
2018-05-21T11:17:29.480Z,22432.00
2018-05-21T11:18:29.390Z,104768.00
2018-05-21T11:19:29.312Z,67552.00
2018-05-21T11:20:29.234Z,71328.00
2018-05-21T11:21:29.142Z,94656.00
2018-05-21T11:22:29.064Z,82400.00
2018-05-21T11:23:28.986Z,93664.00
2018-05-21T11:24:28.896Z,81568.00
2018-05-21T11:25:28.819Z,24064.00
2018-05-21T11:26:28.727Z,15724.00
2018-05-21T11:27:28.648Z,16052.00
2018-05-21T11:28:28.571Z,16036.00
2018-05-21T11:29:28.480Z,17072.00
2018-05-21T11:30:28.400Z,16240.00
2018-05-21T11:31:28.309Z,15512.00
2018-05-21T11:32:28.231Z,16364.00
2018-05-21T11:33:28.140Z,17432.00
2018-05-21T11:34:28.049Z,18016.00
2018-05-21T11:35:27.971Z,17824.00
2018-05-21T11:36:27.881Z,17792.00
2018-05-21T11:37:27.807Z,17152.00
2018-05-21T11:38:27.711Z,16744.00
2018-05-21T11:39:27.628Z,17052.00
2018-05-21T11:40:27.530Z,17984.00
2018-05-21T11:41:27.450Z,20128.00
2018-05-21T11:42:27.363Z,23168.00
2018-05-21T11:43:27.271Z,23104.00
2018-05-21T11:44:27.190Z,24416.00
2018-05-21T11:45:27.101Z,25088.00
2018-05-21T11:46:27.036Z,24800.00
2018-05-21T11:47:26.920Z,23040.00
2018-05-21T11:48:26.841Z,20832.00
2018-05-21T11:49:26.749Z,21504.00
2018-05-21T11:50:26.660Z,22112.00
2018-05-21T11:51:26.868Z,21408.00
2018-05-21T11:52:26.481Z,22464.00
2018-05-21T11:53:26.399Z,23520.00
2018-05-21T11:54:26.308Z,23488.00
2018-05-21T11:55:26.218Z,24640.00
2018-05-21T11:56:26.126Z,41312.00
2018-05-21T11:57:26.036Z,73568.00
2018-05-21T11:58:25.961Z,88448.00
2018-05-21T11:59:25.866Z,80992.00
2018-05-21T12:00:25.776Z,71616.00
2018-05-21T12:01:25.685Z,70176.00
2018-05-21T12:02:25.596Z,94912.00
2018-05-21T12:03:25.516Z,101056.00
2018-05-21T12:04:25.451Z,96256.00
2018-05-21T12:05:25.336Z,70752.00
2018-05-21T12:06:25.256Z,87936.00
2018-05-21T12:07:25.165Z,72768.00
2018-05-21T12:08:25.076Z,18752.00
2018-05-21T12:09:24.999Z,18528.00